Time;durP1;ratioP1;P1;durP2;ratioP2;P2;SDS_P1;SDS_P2;PMS_P1;PMS_P2;Temp;Humidity;BMP_temperature;BMP_pressure;BME280_temperature;BME280_humidity;BME280_pressure;Samples;Min_cycle;Max_cycle;Signal;HPM_P1;HPM_P2
2020/12/12 00:11:29;;;;;;;158.30;46.92;;;;;;;2.85;100.00;99493.43;10599296;82;21202;-81
2020/12/12 00:26:34;;;;;;;61.45;23.77;;;;;;;2.79;100.00;99481.73;10610334;82;21213;-81
2020/12/12 00:41:40;;;;;;;75.17;26.70;;;;;;;2.96;100.00;99480.58;10580353;82;21662;-80
2020/12/12 00:56:45;;;;;;;80.23;34.33;;;;;;;3.05;100.00;99480.39;10549350;82;21068;-80
2020/12/12 01:11:51;;;;;;;51.20;23.12;;;;;;;3.15;100.00;99480.96;10599325;82;21105;-80
2020/12/12 01:26:56;;;;;;;26.12;14.18;;;;;;;3.20;100.00;99461.66;10627845;83;21069;-80
2020/12/12 01:42:01;;;;;;;43.70;18.55;;;;;;;3.26;100.00;99454.73;10639224;83;21045;-80
2020/12/12 01:57:09;;;;;;;39.90;19.25;;;;;;;3.42;100.00;99458.35;10636080;83;21242;-80
2020/12/12 02:12:13;;;;;;;72.30;22.80;;;;;;;3.48;100.00;99467.84;10589099;83;21541;-81
2020/12/12 02:27:21;;;;;;;67.55;24.00;;;;;;;3.58;100.00;99466.70;10373156;83;21473;-82
2020/12/12 02:42:28;;;;;;;100.55;32.20;;;;;;;3.68;100.00;99452.59;10423874;84;21100;-83
2020/12/12 02:57:32;;;;;;;96.45;34.95;;;;;;;3.76;100.00;99453.33;10352890;84;21446;-80
2020/12/12 03:12:38;;;;;;;73.15;29.90;;;;;;;3.83;100.00;99448.06;10409277;84;21077;-82
2020/12/12 03:27:43;;;;;;;68.75;28.23;;;;;;;3.85;100.00;99449.25;10410714;84;21037;-81
2020/12/12 03:42:47;;;;;;;91.22;41.90;;;;;;;3.91;100.00;99441.02;10444436;84;21044;-81
2020/12/12 03:57:51;;;;;;;58.08;23.45;;;;;;;3.96;100.00;99451.41;10826148;82;21139;-82
2020/12/12 04:12:55;;;;;;;55.43;21.17;;;;;;;3.87;100.00;99446.05;10822905;82;21549;-82
2020/12/12 04:28:00;;;;;;;59.85;23.40;;;;;;;3.81;100.00;99443.45;10835756;82;21051;-81
2020/12/12 04:43:04;;;;;;;358.63;113.80;;;;;;;3.66;100.00;99444.11;10800186;81;21031;-80
2020/12/12 04:58:11;;;;;;;53.25;22.50;;;;;;;3.72;100.00;99436.34;10784825;82;21406;-80
2020/12/12 05:13:21;;;;;;;74.90;26.52;;;;;;;3.75;100.00;99435.66;10719965;82;21068;-81
2020/12/12 05:28:25;;;;;;;109.17;35.70;;;;;;;3.73;100.00;99439.30;10650364;82;21064;-78
2020/12/12 05:43:35;;;;;;;40.75;17.07;;;;;;;3.74;100.00;99445.66;10696050;82;21094;-81
2020/12/12 05:58:43;;;;;;;47.67;17.45;;;;;;;3.54;100.00;99442.38;10705506;82;21867;-82
2020/12/12 06:13:50;;;;;;;37.80;16.73;;;;;;;3.65;100.00;99444.55;10734632;81;21049;-85
2020/12/12 06:28:55;;;;;;;91.37;35.40;;;;;;;3.52;100.00;99453.35;10703746;82;21171;-81
2020/12/12 06:43:59;;;;;;;39.35;19.23;;;;;;;3.51;100.00;99462.91;10743739;82;21119;-80
2020/12/12 06:59:31;;;;;;;49.53;23.73;;;;;;;3.31;100.00;99463.86;10834822;82;21155;-80
2020/12/12 07:14:37;;;;;;;54.53;29.82;;;;;;;3.23;100.00;99462.25;10790748;82;21000;-81
2020/12/12 07:29:43;;;;;;;132.07;51.53;;;;;;;3.04;100.00;99465.80;10592753;83;21018;-81
2020/12/12 07:44:56;;;;;;;55.90;27.73;;;;;;;2.78;100.00;99480.89;10769511;81;21187;-82
2020/12/12 08:00:09;;;;;;;71.02;30.43;;;;;;;2.95;100.00;99492.69;10530290;83;21077;-82
2020/12/12 08:15:17;;;;;;;278.65;94.52;;;;;;;2.91;100.00;99504.67;10484948;82;21354;-82
2020/12/12 08:30:21;;;;;;;147.07;51.85;;;;;;;2.85;100.00;99511.12;10485625;83;21512;-82
2020/12/12 08:45:28;;;;;;;128.35;45.75;;;;;;;2.78;100.00;99521.04;10629410;82;21590;-81
2020/12/12 09:00:39;;;;;;;94.00;34.67;;;;;;;2.74;100.00;99528.66;11226399;77;22157;-82
2020/12/12 09:15:43;;;;;;;98.10;29.67;;;;;;;2.58;100.00;99635.04;10983381;80;21245;-82
2020/12/12 09:30:48;;;;;;;124.02;51.35;;;;;;;1.91;100.00;99527.16;10969328;80;21080;-82
2020/12/12 09:45:53;;;;;;;115.00;39.03;;;;;;;2.53;100.00;99542.58;10997938;80;21654;-81
2020/12/12 10:00:57;;;;;;;289.85;78.40;;;;;;;2.34;100.00;99519.68;10989371;80;21636;-83
2020/12/12 10:16:02;;;;;;;106.87;36.85;;;;;;;2.36;100.00;99525.57;10992310;80;21745;-81
2020/12/12 10:31:07;;;;;;;138.92;42.78;;;;;;;2.25;100.00;99524.17;10978404;80;21709;-84
2020/12/12 10:46:14;;;;;;;74.23;26.50;;;;;;;2.22;100.00;99526.94;10975375;80;21284;-83
2020/12/12 11:01:20;;;;;;;104.45;31.40;;;;;;;2.12;100.00;99534.48;10992701;79;21300;-83
2020/12/12 11:16:24;;;;;;;53.90;21.57;;;;;;;2.11;100.00;99529.78;10996605;79;21155;-84
2020/12/12 11:31:30;;;;;;;189.75;68.00;;;;;;;2.13;100.00;99530.50;10550557;82;21232;-81
2020/12/12 11:46:37;;;;;;;159.75;49.77;;;;;;;2.15;100.00;99524.77;10866245;80;21179;-83
2020/12/12 12:01:42;;;;;;;124.23;48.80;;;;;;;2.23;100.00;99523.43;10973818;79;21111;-83
2020/12/12 12:16:48;;;;;;;147.32;50.08;;;;;;;2.28;100.00;99535.16;10983882;79;21602;-84
2020/12/12 12:31:55;;;;;;;313.05;100.12;;;;;;;2.30;100.00;99537.64;10999555;80;21146;-83
2020/12/12 12:46:59;;;;;;;275.80;136.97;;;;;;;2.00;100.00;99533.52;11011361;80;21159;-82
2020/12/12 13:02:04;;;;;;;168.30;58.92;;;;;;;2.08;100.00;99565.38;10904836;79;21168;-83
2020/12/12 13:17:10;;;;;;;72.37;27.22;;;;;;;2.00;100.00;99571.85;10896415;79;21171;-83
2020/12/12 13:32:15;;;;;;;102.63;41.27;;;;;;;2.00;100.00;99571.85;10892134;81;21147;-82
2020/12/12 13:47:20;;;;;;;150.42;54.53;;;;;;;2.01;100.00;99592.10;10917625;80;21100;-82
2020/12/12 14:02:24;;;;;;;89.62;30.62;;;;;;;1.93;100.00;99582.71;11009430;80;21214;-82
2020/12/12 14:33:11;;;;;;;192.13;58.13;;;;;;;1.91;100.00;99600.08;10597463;81;21191;-84
2020/12/12 14:48:17;;;;;;;121.75;57.83;;;;;;;1.91;100.00;99606.54;10565872;79;21100;-85
2020/12/12 15:03:25;;;;;;;111.03;36.00;;;;;;;1.91;100.00;99630.64;10704319;80;21292;-83
2020/12/12 15:18:38;;;;;;;190.00;71.60;;;;;;;1.55;100.00;99649.28;10545497;82;21616;-86
2020/12/12 15:33:46;;;;;;;106.78;37.40;;;;;;;1.55;100.00;99649.28;10395625;83;21569;-77
2020/12/12 15:48:55;;;;;;;78.70;31.00;;;;;;;1.64;100.00;99646.12;10502087;82;21146;-82
2020/12/12 16:04:03;;;;;;;169.45;59.98;;;;;;;2.01;100.00;99650.31;10902061;80;21210;-82
2020/12/12 16:19:13;;;;;;;208.20;91.22;;;;;;;2.02;100.00;99671.39;10921271;80;21120;-81
2020/12/12 16:34:19;;;;;;;778.65;272.05;;;;;;;2.13;100.00;99679.30;10919653;81;21191;-84
2020/12/12 16:49:34;;;;;;;;;;;;;;;2.13;100.00;99679.30;10918150;80;21242;-84
2020/12/12 17:04:39;;;;;;;624.38;236.85;;;;;;;2.11;100.00;99685.49;10937183;79;20518;-83
2020/12/12 17:19:43;;;;;;;166.45;62.73;;;;;;;2.16;100.00;99680.86;10916166;80;21710;-82
2020/12/12 17:34:47;;;;;;;267.43;107.97;;;;;;;2.08;100.00;99682.63;10916142;79;21206;-82
2020/12/12 17:49:52;;;;;;;75.25;38.00;;;;;;;2.06;100.00;99693.56;10931016;79;21183;-84
2020/12/12 18:04:57;;;;;;;62.98;26.80;;;;;;;1.72;100.00;99709.84;10911659;79;21262;-82
2020/12/12 18:20:02;;;;;;;75.17;34.70;;;;;;;1.65;100.00;99698.22;10914270;79;21212;-83
2020/12/12 18:35:11;;;;;;;67.47;29.70;;;;;;;1.96;100.00;99706.69;10897858;81;21325;-83
2020/12/12 18:50:16;;;;;;;56.50;24.65;;;;;;;1.98;100.00;99722.48;10859640;80;21171;-82
2020/12/12 19:05:20;;;;;;;61.60;28.27;;;;;;;2.01;100.00;99722.77;10938648;80;21147;-83
2020/12/12 19:20:26;;;;;;;55.17;27.07;;;;;;;1.97;100.00;99750.58;10941145;79;21242;-81
2020/12/12 19:35:31;;;;;;;67.85;27.32;;;;;;;1.72;100.00;99746.05;10997993;79;21261;-83
2020/12/12 19:50:35;;;;;;;65.40;25.92;;;;;;;1.72;100.00;99746.05;10521925;83;21170;-83
2020/12/12 20:05:39;;;;;;;122.07;52.98;;;;;;;1.63;100.00;99756.47;10865527;81;21099;-83
2020/12/12 20:20:44;;;;;;;91.87;35.45;;;;;;;1.65;100.00;99757.70;10463893;82;21285;-78
2020/12/12 20:35:49;;;;;;;107.50;42.48;;;;;;;1.65;100.00;99757.70;10844266;81;21142;-80
2020/12/12 20:50:53;;;;;;;92.42;33.05;;;;;;;1.70;100.00;99760.81;10868514;80;21673;-80
2020/12/12 21:05:57;;;;;;;124.50;47.50;;;;;;;1.69;100.00;99778.57;10935699;80;21107;-80
2020/12/12 21:21:02;;;;;;;75.47;31.35;;;;;;;1.69;100.00;99778.57;10531217;83;21334;-77
2020/12/12 21:36:07;;;;;;;63.73;24.52;;;;;;;1.70;100.00;99779.39;10613856;83;21258;-79
2020/12/12 21:51:12;;;;;;;144.70;46.40;;;;;;;1.76;100.00;99788.91;10687437;83;21115;-78
2020/12/12 22:06:26;;;;;;;87.27;31.73;;;;;;;1.71;100.00;99789.64;10673192;82;21655;-79
2020/12/12 22:21:24;;;;;;;37.23;16.90;;;;;;;1.57;100.00;99794.79;10904375;80;21167;-78
2020/12/12 22:36:28;;;;;;;33.90;16.30;;;;;;;1.57;100.00;99794.79;10907991;80;21575;-78
2020/12/12 22:51:33;;;;;;;55.98;24.18;;;;;;;1.59;100.00;99805.89;10492933;83;21251;-79
2020/12/12 23:06:39;;;;;;;68.85;26.17;;;;;;;1.56;100.00;99800.88;10852348;81;21310;-79
2020/12/12 23:21:45;;;;;;;35.00;16.13;;;;;;;1.54;100.00;99799.67;10472204;84;21553;-78
2020/12/12 23:36:50;;;;;;;29.73;14.20;;;;;;;1.64;100.00;99820.20;10847381;81;21215;-78
2020/12/12 23:51:54;;;;;;;37.88;16.67;;;;;;;1.77;100.00;99827.23;10861156;80;21195;-78
